Upstream stations:
Downstream station:
SHEF ID: CLVO2 Canadian River at Calvin, OK
STATION TYPE:
Regulating: Stage = 17.00, Flow = 48538
PRECIP STAGE RIV-FLOW BAT-LOAD
in ft cfs volt
Ccp-Rev Ccp-Rev Ccp-Rev Ccp-Rev
(US/Central)
10/23 00:00 0.00 6.20 487 12.97
10/23 01:00 0.00 6.20 487 12.97
10/23 02:00 0.00 6.21 492 12.89
10/23 03:00 0.00 6.20 487 12.89
10/23 04:00 0.00 6.20 487 12.89
10/23 05:00 0.00 6.19 482 12.81
10/23 06:00 0.00 6.19 482 12.81
10/23 07:00 0.00 6.19 482 12.81
10/23 08:00 0.00 6.19 482 12.81
10/23 09:00 0.00 6.19 482 12.81
10/23 10:00 0.00 6.18 477 13.37
10/23 11:00 0.00 6.18 477 13.68
10/23 12:00 0.00 6.17 473 14.00
10/23 13:00 0.00 6.17 473 14.08
10/23 14:00 0.00 6.17 473 13.76
10/23 15:00 0.00 6.13 453 13.68
10/23 16:00 0.00 6.14 458 13.60
10/23 17:00 0.00 6.16 468 13.60
10/23 18:00 0.00 6.14 458 13.53
10/23 19:00 0.00 6.15 463 13.05
10/23 20:00 0.00 6.14 458 13.05
10/23 21:00 0.00 6.14 458 12.97
10/23 22:00 0.00 6.14 458 12.97
10/23 23:00 0.00 6.15 463 12.97